sensor_id;sensor_type;location;lat;lon;timestamp;P1;durP1;ratioP1;P2;durP2;ratioP2
5785;SDS011;2919;48.630;9.000;2024-03-07T00:02:19;35.63;;;13.93;;
5785;SDS011;2919;48.630;9.000;2024-03-07T00:04:45;37.20;;;15.30;;
5785;SDS011;2919;48.630;9.000;2024-03-07T00:07:11;36.03;;;15.20;;
5785;SDS011;2919;48.630;9.000;2024-03-07T00:09:37;35.37;;;16.90;;
5785;SDS011;2919;48.630;9.000;2024-03-07T00:12:03;33.10;;;16.73;;
5785;SDS011;2919;48.630;9.000;2024-03-07T00:14:31;38.20;;;15.40;;
5785;SDS011;2919;48.630;9.000;2024-03-07T00:16:57;35.37;;;16.10;;
5785;SDS011;2919;48.630;9.000;2024-03-07T00:19:24;32.33;;;16.07;;
5785;SDS011;2919;48.630;9.000;2024-03-07T00:21:52;38.87;;;15.80;;
5785;SDS011;2919;48.630;9.000;2024-03-07T00:24:18;32.97;;;17.90;;
5785;SDS011;2919;48.630;9.000;2024-03-07T00:26:44;33.43;;;14.77;;
5785;SDS011;2919;48.630;9.000;2024-03-07T00:29:10;40.80;;;17.50;;
5785;SDS011;2919;48.630;9.000;2024-03-07T00:31:35;41.23;;;15.60;;
5785;SDS011;2919;48.630;9.000;2024-03-07T00:34:01;35.70;;;15.63;;
5785;SDS011;2919;48.630;9.000;2024-03-07T00:36:26;32.73;;;15.20;;
5785;SDS011;2919;48.630;9.000;2024-03-07T00:38:52;29.80;;;15.17;;
5785;SDS011;2919;48.630;9.000;2024-03-07T00:41:18;35.70;;;15.73;;
5785;SDS011;2919;48.630;9.000;2024-03-07T00:43:44;34.17;;;15.33;;
5785;SDS011;2919;48.630;9.000;2024-03-07T00:46:09;38.37;;;15.70;;
5785;SDS011;2919;48.630;9.000;2024-03-07T00:48:36;34.27;;;16.53;;
5785;SDS011;2919;48.630;9.000;2024-03-07T00:51:02;36.70;;;15.97;;
5785;SDS011;2919;48.630;9.000;2024-03-07T00:53:29;41.60;;;16.27;;
5785;SDS011;2919;48.630;9.000;2024-03-07T00:55:54;35.53;;;15.47;;
5785;SDS011;2919;48.630;9.000;2024-03-07T00:58:20;41.10;;;17.23;;
5785;SDS011;2919;48.630;9.000;2024-03-07T01:00:45;44.67;;;16.60;;
5785;SDS011;2919;48.630;9.000;2024-03-07T01:03:11;42.30;;;18.67;;
5785;SDS011;2919;48.630;9.000;2024-03-07T01:05:38;38.10;;;16.93;;
5785;SDS011;2919;48.630;9.000;2024-03-07T01:08:04;28.40;;;14.87;;
5785;SDS011;2919;48.630;9.000;2024-03-07T01:10:30;41.80;;;18.07;;
5785;SDS011;2919;48.630;9.000;2024-03-07T01:12:56;44.67;;;17.77;;
5785;SDS011;2919;48.630;9.000;2024-03-07T01:15:26;36.40;;;17.30;;
5785;SDS011;2919;48.630;9.000;2024-03-07T01:17:52;38.90;;;19.50;;
5785;SDS011;2919;48.630;9.000;2024-03-07T01:20:17;49.30;;;19.10;;
5785;SDS011;2919;48.630;9.000;2024-03-07T01:22:43;44.03;;;17.67;;
5785;SDS011;2919;48.630;9.000;2024-03-07T01:25:09;34.83;;;18.80;;
5785;SDS011;2919;48.630;9.000;2024-03-07T01:27:34;43.40;;;18.63;;
5785;SDS011;2919;48.630;9.000;2024-03-07T01:30:00;44.03;;;18.97;;
5785;SDS011;2919;48.630;9.000;2024-03-07T01:32:26;47.57;;;19.83;;
5785;SDS011;2919;48.630;9.000;2024-03-07T01:34:54;38.03;;;18.37;;
5785;SDS011;2919;48.630;9.000;2024-03-07T01:37:19;43.47;;;21.00;;
5785;SDS011;2919;48.630;9.000;2024-03-07T01:39:45;45.27;;;18.53;;
5785;SDS011;2919;48.630;9.000;2024-03-07T01:42:11;45.50;;;17.23;;
5785;SDS011;2919;48.630;9.000;2024-03-07T01:44:37;42.87;;;19.37;;
5785;SDS011;2919;48.630;9.000;2024-03-07T01:47:02;48.50;;;19.07;;
5785;SDS011;2919;48.630;9.000;2024-03-07T01:49:31;43.70;;;18.97;;
5785;SDS011;2919;48.630;9.000;2024-03-07T01:51:57;40.90;;;20.30;;
5785;SDS011;2919;48.630;9.000;2024-03-07T01:54:24;48.87;;;18.83;;
5785;SDS011;2919;48.630;9.000;2024-03-07T01:56:51;52.07;;;19.70;;
5785;SDS011;2919;48.630;9.000;2024-03-07T01:59:16;32.23;;;17.13;;
5785;SDS011;2919;48.630;9.000;2024-03-07T02:01:45;56.33;;;19.67;;
5785;SDS011;2919;48.630;9.000;2024-03-07T02:04:11;43.00;;;19.33;;
5785;SDS011;2919;48.630;9.000;2024-03-07T02:06:37;42.30;;;19.13;;
5785;SDS011;2919;48.630;9.000;2024-03-07T02:09:03;41.47;;;20.23;;
5785;SDS011;2919;48.630;9.000;2024-03-07T02:11:30;42.10;;;18.23;;
5785;SDS011;2919;48.630;9.000;2024-03-07T02:13:56;37.17;;;20.00;;
5785;SDS011;2919;48.630;9.000;2024-03-07T02:16:21;43.10;;;19.77;;
5785;SDS011;2919;48.630;9.000;2024-03-07T02:18:47;44.80;;;19.00;;
5785;SDS011;2919;48.630;9.000;2024-03-07T02:21:15;39.70;;;16.90;;
5785;SDS011;2919;48.630;9.000;2024-03-07T02:23:40;49.57;;;20.80;;
5785;SDS011;2919;48.630;9.000;2024-03-07T02:26:06;58.43;;;21.00;;
5785;SDS011;2919;48.630;9.000;2024-03-07T02:28:33;64.23;;;19.13;;
5785;SDS011;2919;48.630;9.000;2024-03-07T02:30:59;47.67;;;20.23;;
5785;SDS011;2919;48.630;9.000;2024-03-07T02:33:24;40.60;;;19.17;;
5785;SDS011;2919;48.630;9.000;2024-03-07T02:35:50;35.93;;;18.50;;
5785;SDS011;2919;48.630;9.000;2024-03-07T02:38:16;40.37;;;19.57;;
5785;SDS011;2919;48.630;9.000;2024-03-07T02:40:42;44.97;;;21.40;;
5785;SDS011;2919;48.630;9.000;2024-03-07T02:43:08;46.40;;;20.93;;
5785;SDS011;2919;48.630;9.000;2024-03-07T02:45:33;44.90;;;18.80;;
5785;SDS011;2919;48.630;9.000;2024-03-07T02:47:59;50.87;;;20.13;;
5785;SDS011;2919;48.630;9.000;2024-03-07T02:50:24;45.97;;;18.70;;
5785;SDS011;2919;48.630;9.000;2024-03-07T02:52:50;43.50;;;21.50;;
5785;SDS011;2919;48.630;9.000;2024-03-07T02:55:17;51.03;;;21.40;;
5785;SDS011;2919;48.630;9.000;2024-03-07T02:57:44;34.20;;;18.03;;
5785;SDS011;2919;48.630;9.000;2024-03-07T03:00:10;42.40;;;20.97;;
5785;SDS011;2919;48.630;9.000;2024-03-07T03:02:45;44.23;;;19.80;;
5785;SDS011;2919;48.630;9.000;2024-03-07T03:05:12;69.90;;;21.50;;
5785;SDS011;2919;48.630;9.000;2024-03-07T03:07:39;50.03;;;21.97;;
5785;SDS011;2919;48.630;9.000;2024-03-07T03:10:05;41.90;;;19.57;;
5785;SDS011;2919;48.630;9.000;2024-03-07T03:12:34;44.70;;;21.60;;
5785;SDS011;2919;48.630;9.000;2024-03-07T03:15:04;49.70;;;18.70;;
5785;SDS011;2919;48.630;9.000;2024-03-07T03:17:31;40.10;;;18.40;;
5785;SDS011;2919;48.630;9.000;2024-03-07T03:19:57;43.93;;;19.17;;
5785;SDS011;2919;48.630;9.000;2024-03-07T03:22:22;46.10;;;21.07;;
5785;SDS011;2919;48.630;9.000;2024-03-07T03:24:48;50.47;;;21.70;;
5785;SDS011;2919;48.630;9.000;2024-03-07T03:27:13;56.23;;;21.03;;
5785;SDS011;2919;48.630;9.000;2024-03-07T03:29:39;47.97;;;20.50;;
5785;SDS011;2919;48.630;9.000;2024-03-07T03:32:05;55.27;;;21.20;;
5785;SDS011;2919;48.630;9.000;2024-03-07T03:34:32;41.17;;;19.00;;
5785;SDS011;2919;48.630;9.000;2024-03-07T03:36:58;57.17;;;20.47;;
5785;SDS011;2919;48.630;9.000;2024-03-07T03:39:24;41.77;;;20.57;;
5785;SDS011;2919;48.630;9.000;2024-03-07T03:41:51;46.37;;;21.73;;
5785;SDS011;2919;48.630;9.000;2024-03-07T03:44:17;45.87;;;19.07;;
5785;SDS011;2919;48.630;9.000;2024-03-07T03:46:43;49.07;;;18.97;;
5785;SDS011;2919;48.630;9.000;2024-03-07T03:49:09;43.40;;;19.60;;
5785;SDS011;2919;48.630;9.000;2024-03-07T03:51:35;56.27;;;20.43;;
5785;SDS011;2919;48.630;9.000;2024-03-07T03:54:01;47.70;;;20.30;;
5785;SDS011;2919;48.630;9.000;2024-03-07T03:56:27;50.07;;;20.63;;
5785;SDS011;2919;48.630;9.000;2024-03-07T03:58:53;47.80;;;20.93;;
5785;SDS011;2919;48.630;9.000;2024-03-07T04:01:18;41.73;;;20.23;;
5785;SDS011;2919;48.630;9.000;2024-03-07T04:03:44;51.30;;;20.07;;
5785;SDS011;2919;48.630;9.000;2024-03-07T04:06:11;43.83;;;20.50;;
5785;SDS011;2919;48.630;9.000;2024-03-07T04:08:37;67.03;;;21.00;;
5785;SDS011;2919;48.630;9.000;2024-03-07T04:11:03;51.43;;;19.77;;
5785;SDS011;2919;48.630;9.000;2024-03-07T04:13:34;42.60;;;17.93;;
5785;SDS011;2919;48.630;9.000;2024-03-07T04:15:59;53.67;;;22.57;;
5785;SDS011;2919;48.630;9.000;2024-03-07T04:18:25;49.30;;;21.30;;
5785;SDS011;2919;48.630;9.000;2024-03-07T04:20:51;55.30;;;22.07;;
5785;SDS011;2919;48.630;9.000;2024-03-07T04:23:17;52.20;;;21.70;;
5785;SDS011;2919;48.630;9.000;2024-03-07T04:25:43;53.70;;;20.83;;
5785;SDS011;2919;48.630;9.000;2024-03-07T04:28:09;45.57;;;21.23;;
5785;SDS011;2919;48.630;9.000;2024-03-07T04:30:34;48.80;;;21.10;;
5785;SDS011;2919;48.630;9.000;2024-03-07T04:32:59;49.07;;;20.87;;
5785;SDS011;2919;48.630;9.000;2024-03-07T04:35:25;51.00;;;21.33;;
5785;SDS011;2919;48.630;9.000;2024-03-07T04:37:50;46.97;;;19.73;;
5785;SDS011;2919;48.630;9.000;2024-03-07T04:40:17;53.83;;;20.07;;
5785;SDS011;2919;48.630;9.000;2024-03-07T04:42:44;42.60;;;21.37;;
5785;SDS011;2919;48.630;9.000;2024-03-07T04:45:11;55.23;;;23.80;;
5785;SDS011;2919;48.630;9.000;2024-03-07T04:47:38;56.07;;;24.13;;
5785;SDS011;2919;48.630;9.000;2024-03-07T04:50:08;45.17;;;22.30;;
5785;SDS011;2919;48.630;9.000;2024-03-07T04:52:35;56.97;;;25.00;;
5785;SDS011;2919;48.630;9.000;2024-03-07T04:55:08;38.77;;;20.10;;
5785;SDS011;2919;48.630;9.000;2024-03-07T04:57:35;63.43;;;24.97;;
5785;SDS011;2919;48.630;9.000;2024-03-07T05:00:03;52.73;;;22.50;;
5785;SDS011;2919;48.630;9.000;2024-03-07T05:02:28;57.27;;;23.40;;
5785;SDS011;2919;48.630;9.000;2024-03-07T05:04:54;54.93;;;21.73;;
5785;SDS011;2919;48.630;9.000;2024-03-07T05:07:20;50.27;;;23.60;;
5785;SDS011;2919;48.630;9.000;2024-03-07T05:09:45;59.87;;;26.27;;
5785;SDS011;2919;48.630;9.000;2024-03-07T05:12:10;55.43;;;24.90;;
5785;SDS011;2919;48.630;9.000;2024-03-07T05:14:36;57.87;;;24.10;;
5785;SDS011;2919;48.630;9.000;2024-03-07T05:17:01;52.93;;;24.77;;
5785;SDS011;2919;48.630;9.000;2024-03-07T05:19:31;55.73;;;23.27;;
5785;SDS011;2919;48.630;9.000;2024-03-07T05:21:57;53.63;;;23.70;;
5785;SDS011;2919;48.630;9.000;2024-03-07T05:24:23;54.57;;;22.27;;
5785;SDS011;2919;48.630;9.000;2024-03-07T05:26:48;47.33;;;21.10;;
5785;SDS011;2919;48.630;9.000;2024-03-07T05:29:14;54.17;;;22.63;;
5785;SDS011;2919;48.630;9.000;2024-03-07T05:31:40;50.27;;;24.40;;
5785;SDS011;2919;48.630;9.000;2024-03-07T05:34:12;60.80;;;24.93;;
5785;SDS011;2919;48.630;9.000;2024-03-07T05:36:38;55.87;;;23.83;;
5785;SDS011;2919;48.630;9.000;2024-03-07T05:39:10;58.97;;;21.70;;
5785;SDS011;2919;48.630;9.000;2024-03-07T05:41:36;55.37;;;21.03;;
5785;SDS011;2919;48.630;9.000;2024-03-07T05:44:02;48.63;;;22.10;;
5785;SDS011;2919;48.630;9.000;2024-03-07T05:46:28;54.27;;;23.10;;
5785;SDS011;2919;48.630;9.000;2024-03-07T05:48:53;40.93;;;20.57;;
5785;SDS011;2919;48.630;9.000;2024-03-07T05:51:21;49.10;;;20.83;;
5785;SDS011;2919;48.630;9.000;2024-03-07T05:53:48;48.97;;;20.07;;
5785;SDS011;2919;48.630;9.000;2024-03-07T05:56:14;56.20;;;21.43;;
5785;SDS011;2919;48.630;9.000;2024-03-07T05:58:39;47.03;;;21.47;;
5785;SDS011;2919;48.630;9.000;2024-03-07T06:01:05;54.20;;;19.57;;
5785;SDS011;2919;48.630;9.000;2024-03-07T06:03:30;52.47;;;21.00;;
5785;SDS011;2919;48.630;9.000;2024-03-07T06:05:56;53.93;;;18.07;;
5785;SDS011;2919;48.630;9.000;2024-03-07T06:08:21;47.60;;;18.87;;
5785;SDS011;2919;48.630;9.000;2024-03-07T06:10:47;40.20;;;17.90;;
5785;SDS011;2919;48.630;9.000;2024-03-07T06:13:13;45.47;;;19.40;;
5785;SDS011;2919;48.630;9.000;2024-03-07T06:15:42;36.73;;;17.60;;
5785;SDS011;2919;48.630;9.000;2024-03-07T06:18:09;40.20;;;18.60;;
5785;SDS011;2919;48.630;9.000;2024-03-07T06:20:39;40.63;;;17.17;;
5785;SDS011;2919;48.630;9.000;2024-03-07T06:23:05;45.93;;;17.90;;
5785;SDS011;2919;48.630;9.000;2024-03-07T06:25:34;40.47;;;17.17;;
5785;SDS011;2919;48.630;9.000;2024-03-07T06:28:12;37.67;;;16.60;;
5785;SDS011;2919;48.630;9.000;2024-03-07T06:30:38;46.60;;;19.93;;
5785;SDS011;2919;48.630;9.000;2024-03-07T06:33:05;46.80;;;20.43;;
5785;SDS011;2919;48.630;9.000;2024-03-07T06:35:31;45.30;;;19.87;;
5785;SDS011;2919;48.630;9.000;2024-03-07T06:37:57;48.20;;;19.83;;
5785;SDS011;2919;48.630;9.000;2024-03-07T06:40:23;41.73;;;19.73;;
5785;SDS011;2919;48.630;9.000;2024-03-07T06:42:48;37.93;;;16.60;;
5785;SDS011;2919;48.630;9.000;2024-03-07T06:45:14;53.63;;;21.50;;
5785;SDS011;2919;48.630;9.000;2024-03-07T06:47:40;53.23;;;20.53;;
5785;SDS011;2919;48.630;9.000;2024-03-07T06:50:06;48.50;;;20.60;;
5785;SDS011;2919;48.630;9.000;2024-03-07T06:52:34;42.43;;;18.23;;
5785;SDS011;2919;48.630;9.000;2024-03-07T06:55:01;47.23;;;18.27;;
5785;SDS011;2919;48.630;9.000;2024-03-07T06:57:28;42.53;;;20.00;;
5785;SDS011;2919;48.630;9.000;2024-03-07T06:59:54;48.33;;;19.20;;
5785;SDS011;2919;48.630;9.000;2024-03-07T07:02:20;35.50;;;18.37;;
5785;SDS011;2919;48.630;9.000;2024-03-07T07:04:45;37.70;;;17.03;;
5785;SDS011;2919;48.630;9.000;2024-03-07T07:07:12;40.13;;;18.33;;
5785;SDS011;2919;48.630;9.000;2024-03-07T07:09:39;44.17;;;18.67;;
5785;SDS011;2919;48.630;9.000;2024-03-07T07:12:05;40.63;;;20.00;;
5785;SDS011;2919;48.630;9.000;2024-03-07T07:14:31;42.60;;;18.93;;
5785;SDS011;2919;48.630;9.000;2024-03-07T07:16:56;42.40;;;19.53;;
5785;SDS011;2919;48.630;9.000;2024-03-07T07:19:24;43.70;;;20.10;;
5785;SDS011;2919;48.630;9.000;2024-03-07T07:21:49;41.37;;;18.60;;
5785;SDS011;2919;48.630;9.000;2024-03-07T07:24:18;41.33;;;19.07;;
5785;SDS011;2919;48.630;9.000;2024-03-07T07:26:44;42.90;;;19.97;;
5785;SDS011;2919;48.630;9.000;2024-03-07T07:29:10;53.50;;;19.90;;
5785;SDS011;2919;48.630;9.000;2024-03-07T07:31:36;41.93;;;17.17;;
5785;SDS011;2919;48.630;9.000;2024-03-07T07:34:01;48.70;;;20.70;;
5785;SDS011;2919;48.630;9.000;2024-03-07T07:36:29;44.30;;;18.23;;
5785;SDS011;2919;48.630;9.000;2024-03-07T07:38:54;41.90;;;18.03;;
5785;SDS011;2919;48.630;9.000;2024-03-07T07:41:20;44.97;;;19.30;;
5785;SDS011;2919;48.630;9.000;2024-03-07T07:43:46;42.87;;;18.33;;
5785;SDS011;2919;48.630;9.000;2024-03-07T07:46:12;38.93;;;18.67;;
5785;SDS011;2919;48.630;9.000;2024-03-07T07:48:38;38.43;;;18.47;;
5785;SDS011;2919;48.630;9.000;2024-03-07T07:51:03;34.07;;;16.00;;
5785;SDS011;2919;48.630;9.000;2024-03-07T07:53:30;41.27;;;17.53;;
5785;SDS011;2919;48.630;9.000;2024-03-07T07:55:55;39.10;;;17.63;;
5785;SDS011;2919;48.630;9.000;2024-03-07T07:58:21;37.47;;;17.43;;
5785;SDS011;2919;48.630;9.000;2024-03-07T08:00:46;42.13;;;19.70;;
5785;SDS011;2919;48.630;9.000;2024-03-07T08:03:13;41.73;;;17.60;;
5785;SDS011;2919;48.630;9.000;2024-03-07T08:05:42;47.77;;;18.23;;
5785;SDS011;2919;48.630;9.000;2024-03-07T08:08:08;37.20;;;17.10;;
5785;SDS011;2919;48.630;9.000;2024-03-07T08:10:38;40.10;;;16.90;;
5785;SDS011;2919;48.630;9.000;2024-03-07T08:13:06;36.47;;;17.90;;
5785;SDS011;2919;48.630;9.000;2024-03-07T08:15:31;31.23;;;15.83;;
5785;SDS011;2919;48.630;9.000;2024-03-07T08:17:57;37.10;;;16.27;;
5785;SDS011;2919;48.630;9.000;2024-03-07T08:20:24;43.70;;;17.77;;
5785;SDS011;2919;48.630;9.000;2024-03-07T08:22:51;50.13;;;16.90;;
5785;SDS011;2919;48.630;9.000;2024-03-07T08:25:18;42.30;;;19.00;;
5785;SDS011;2919;48.630;9.000;2024-03-07T08:27:54;39.47;;;15.80;;
5785;SDS011;2919;48.630;9.000;2024-03-07T08:30:23;38.30;;;18.33;;
5785;SDS011;2919;48.630;9.000;2024-03-07T08:32:50;42.03;;;17.20;;
5785;SDS011;2919;48.630;9.000;2024-03-07T08:35:17;36.40;;;15.47;;
5785;SDS011;2919;48.630;9.000;2024-03-07T08:37:43;39.30;;;16.13;;
5785;SDS011;2919;48.630;9.000;2024-03-07T08:40:19;34.90;;;16.27;;
5785;SDS011;2919;48.630;9.000;2024-03-07T08:42:49;37.50;;;16.30;;
5785;SDS011;2919;48.630;9.000;2024-03-07T08:45:16;33.40;;;17.90;;
5785;SDS011;2919;48.630;9.000;2024-03-07T08:47:44;41.30;;;17.70;;
5785;SDS011;2919;48.630;9.000;2024-03-07T08:50:10;37.57;;;17.30;;
5785;SDS011;2919;48.630;9.000;2024-03-07T08:52:38;34.03;;;17.30;;
5785;SDS011;2919;48.630;9.000;2024-03-07T08:55:05;41.13;;;15.63;;
5785;SDS011;2919;48.630;9.000;2024-03-07T08:57:34;35.93;;;16.30;;
5785;SDS011;2919;48.630;9.000;2024-03-07T08:59:59;38.03;;;16.57;;
5785;SDS011;2919;48.630;9.000;2024-03-07T09:02:26;39.70;;;16.13;;
5785;SDS011;2919;48.630;9.000;2024-03-07T09:04:52;31.13;;;16.23;;
5785;SDS011;2919;48.630;9.000;2024-03-07T09:07:17;32.80;;;14.90;;
5785;SDS011;2919;48.630;9.000;2024-03-07T09:09:43;36.57;;;17.40;;
5785;SDS011;2919;48.630;9.000;2024-03-07T09:12:10;33.33;;;16.17;;
5785;SDS011;2919;48.630;9.000;2024-03-07T09:14:36;35.07;;;15.70;;
5785;SDS011;2919;48.630;9.000;2024-03-07T09:17:02;48.63;;;18.57;;
5785;SDS011;2919;48.630;9.000;2024-03-07T09:19:29;38.33;;;16.73;;
5785;SDS011;2919;48.630;9.000;2024-03-07T09:21:55;31.53;;;15.80;;
5785;SDS011;2919;48.630;9.000;2024-03-07T09:24:21;41.90;;;16.80;;
5785;SDS011;2919;48.630;9.000;2024-03-07T09:26:49;41.80;;;16.87;;
5785;SDS011;2919;48.630;9.000;2024-03-07T09:29:16;36.07;;;17.20;;
5785;SDS011;2919;48.630;9.000;2024-03-07T09:31:43;44.33;;;16.50;;
5785;SDS011;2919;48.630;9.000;2024-03-07T09:34:09;38.63;;;17.20;;
5785;SDS011;2919;48.630;9.000;2024-03-07T09:36:34;36.67;;;16.40;;
5785;SDS011;2919;48.630;9.000;2024-03-07T09:39:00;39.33;;;16.50;;
5785;SDS011;2919;48.630;9.000;2024-03-07T09:41:26;37.77;;;16.97;;
5785;SDS011;2919;48.630;9.000;2024-03-07T09:43:52;39.37;;;16.67;;
5785;SDS011;2919;48.630;9.000;2024-03-07T09:46:19;29.93;;;14.73;;
5785;SDS011;2919;48.630;9.000;2024-03-07T09:48:48;42.80;;;17.60;;
5785;SDS011;2919;48.630;9.000;2024-03-07T09:51:15;31.90;;;15.87;;
5785;SDS011;2919;48.630;9.000;2024-03-07T09:53:44;35.40;;;17.60;;
5785;SDS011;2919;48.630;9.000;2024-03-07T09:56:11;29.23;;;16.03;;
5785;SDS011;2919;48.630;9.000;2024-03-07T09:58:38;41.73;;;19.57;;
5785;SDS011;2919;48.630;9.000;2024-03-07T10:01:06;41.93;;;16.03;;
5785;SDS011;2919;48.630;9.000;2024-03-07T10:03:35;37.40;;;18.40;;
5785;SDS011;2919;48.630;9.000;2024-03-07T10:06:00;39.50;;;17.60;;
5785;SDS011;2919;48.630;9.000;2024-03-07T10:08:26;42.17;;;18.80;;
5785;SDS011;2919;48.630;9.000;2024-03-07T10:10:54;39.63;;;17.50;;
5785;SDS011;2919;48.630;9.000;2024-03-07T10:13:21;37.90;;;17.13;;
5785;SDS011;2919;48.630;9.000;2024-03-07T10:15:47;37.47;;;17.70;;
5785;SDS011;2919;48.630;9.000;2024-03-07T10:18:13;36.07;;;15.67;;
5785;SDS011;2919;48.630;9.000;2024-03-07T10:20:41;40.10;;;16.67;;
5785;SDS011;2919;48.630;9.000;2024-03-07T10:23:07;43.20;;;18.47;;
5785;SDS011;2919;48.630;9.000;2024-03-07T10:25:33;50.20;;;17.37;;
5785;SDS011;2919;48.630;9.000;2024-03-07T10:27:58;40.50;;;18.33;;
5785;SDS011;2919;48.630;9.000;2024-03-07T10:30:25;42.97;;;18.10;;
5785;SDS011;2919;48.630;9.000;2024-03-07T10:32:56;53.83;;;18.80;;
5785;SDS011;2919;48.630;9.000;2024-03-07T10:35:23;40.07;;;17.27;;
5785;SDS011;2919;48.630;9.000;2024-03-07T10:37:55;44.33;;;18.17;;
5785;SDS011;2919;48.630;9.000;2024-03-07T10:40:24;41.07;;;17.47;;
5785;SDS011;2919;48.630;9.000;2024-03-07T10:42:52;42.77;;;18.03;;
5785;SDS011;2919;48.630;9.000;2024-03-07T10:45:22;39.33;;;16.37;;
5785;SDS011;2919;48.630;9.000;2024-03-07T10:47:55;43.83;;;17.17;;
5785;SDS011;2919;48.630;9.000;2024-03-07T10:50:43;41.07;;;18.00;;
5785;SDS011;2919;48.630;9.000;2024-03-07T10:53:29;33.27;;;15.90;;
5785;SDS011;2919;48.630;9.000;2024-03-07T10:56:18;33.00;;;16.77;;
5785;SDS011;2919;48.630;9.000;2024-03-07T10:58:57;37.70;;;16.83;;
5785;SDS011;2919;48.630;9.000;2024-03-07T11:01:43;40.33;;;17.10;;
5785;SDS011;2919;48.630;9.000;2024-03-07T11:04:31;37.60;;;15.63;;
5785;SDS011;2919;48.630;9.000;2024-03-07T11:06:59;39.23;;;15.93;;
5785;SDS011;2919;48.630;9.000;2024-03-07T11:09:25;29.53;;;14.90;;
5785;SDS011;2919;48.630;9.000;2024-03-07T11:11:58;37.50;;;15.97;;
5785;SDS011;2919;48.630;9.000;2024-03-07T11:14:25;38.30;;;14.23;;
5785;SDS011;2919;48.630;9.000;2024-03-07T11:16:51;30.13;;;14.90;;
5785;SDS011;2919;48.630;9.000;2024-03-07T11:19:24;35.33;;;15.87;;
5785;SDS011;2919;48.630;9.000;2024-03-07T11:21:55;35.57;;;15.03;;
5785;SDS011;2919;48.630;9.000;2024-03-07T11:24:28;25.60;;;13.30;;
5785;SDS011;2919;48.630;9.000;2024-03-07T11:26:56;29.83;;;12.30;;
5785;SDS011;2919;48.630;9.000;2024-03-07T11:29:38;28.50;;;13.93;;
5785;SDS011;2919;48.630;9.000;2024-03-07T11:32:28;23.17;;;11.30;;
5785;SDS011;2919;48.630;9.000;2024-03-07T11:34:54;27.90;;;12.27;;
5785;SDS011;2919;48.630;9.000;2024-03-07T11:37:36;29.90;;;12.57;;
5785;SDS011;2919;48.630;9.000;2024-03-07T11:40:11;24.40;;;12.40;;
5785;SDS011;2919;48.630;9.000;2024-03-07T11:42:48;30.87;;;13.83;;
5785;SDS011;2919;48.630;9.000;2024-03-07T11:45:14;27.30;;;12.60;;
5785;SDS011;2919;48.630;9.000;2024-03-07T11:47:49;31.10;;;13.20;;
5785;SDS011;2919;48.630;9.000;2024-03-07T11:50:22;29.97;;;12.50;;
5785;SDS011;2919;48.630;9.000;2024-03-07T11:52:50;22.57;;;12.67;;
5785;SDS011;2919;48.630;9.000;2024-03-07T11:55:17;27.77;;;13.50;;
5785;SDS011;2919;48.630;9.000;2024-03-07T11:57:44;33.70;;;12.97;;
5785;SDS011;2919;48.630;9.000;2024-03-07T12:00:11;35.53;;;12.43;;
5785;SDS011;2919;48.630;9.000;2024-03-07T12:02:38;32.33;;;12.77;;
5785;SDS011;2919;48.630;9.000;2024-03-07T12:05:04;29.30;;;11.23;;
5785;SDS011;2919;48.630;9.000;2024-03-07T12:07:30;36.43;;;14.30;;
5785;SDS011;2919;48.630;9.000;2024-03-07T12:09:56;27.53;;;12.30;;
5785;SDS011;2919;48.630;9.000;2024-03-07T12:12:22;27.43;;;12.60;;
5785;SDS011;2919;48.630;9.000;2024-03-07T12:14:49;26.57;;;12.20;;
5785;SDS011;2919;48.630;9.000;2024-03-07T12:17:17;30.33;;;12.70;;
5785;SDS011;2919;48.630;9.000;2024-03-07T12:19:43;31.70;;;13.50;;
5785;SDS011;2919;48.630;9.000;2024-03-07T12:22:09;32.97;;;13.93;;
5785;SDS011;2919;48.630;9.000;2024-03-07T12:24:39;30.67;;;13.83;;
5785;SDS011;2919;48.630;9.000;2024-03-07T12:27:09;30.70;;;14.17;;
5785;SDS011;2919;48.630;9.000;2024-03-07T12:29:36;44.50;;;13.87;;
5785;SDS011;2919;48.630;9.000;2024-03-07T12:32:07;29.07;;;12.70;;
5785;SDS011;2919;48.630;9.000;2024-03-07T12:34:35;33.07;;;12.30;;
5785;SDS011;2919;48.630;9.000;2024-03-07T12:37:05;29.10;;;13.13;;
5785;SDS011;2919;48.630;9.000;2024-03-07T12:39:34;31.40;;;13.90;;
5785;SDS011;2919;48.630;9.000;2024-03-07T12:42:04;32.87;;;13.37;;
5785;SDS011;2919;48.630;9.000;2024-03-07T12:44:42;33.03;;;14.33;;
5785;SDS011;2919;48.630;9.000;2024-03-07T12:47:10;31.27;;;12.90;;
5785;SDS011;2919;48.630;9.000;2024-03-07T12:49:38;27.67;;;14.30;;
5785;SDS011;2919;48.630;9.000;2024-03-07T12:52:03;36.10;;;15.47;;
5785;SDS011;2919;48.630;9.000;2024-03-07T12:54:30;30.90;;;14.00;;
5785;SDS011;2919;48.630;9.000;2024-03-07T12:56:56;39.67;;;15.00;;
5785;SDS011;2919;48.630;9.000;2024-03-07T12:59:21;31.17;;;13.53;;
5785;SDS011;2919;48.630;9.000;2024-03-07T13:01:49;33.17;;;13.50;;
5785;SDS011;2919;48.630;9.000;2024-03-07T13:04:15;37.03;;;16.00;;
5785;SDS011;2919;48.630;9.000;2024-03-07T13:06:40;33.47;;;14.40;;
5785;SDS011;2919;48.630;9.000;2024-03-07T13:09:11;32.53;;;13.67;;
5785;SDS011;2919;48.630;9.000;2024-03-07T13:11:39;31.37;;;14.80;;
5785;SDS011;2919;48.630;9.000;2024-03-07T13:14:08;36.90;;;15.60;;
5785;SDS011;2919;48.630;9.000;2024-03-07T13:16:34;34.03;;;14.73;;
5785;SDS011;2919;48.630;9.000;2024-03-07T13:19:00;29.20;;;12.27;;
5785;SDS011;2919;48.630;9.000;2024-03-07T13:21:29;42.60;;;15.13;;
5785;SDS011;2919;48.630;9.000;2024-03-07T13:23:59;31.90;;;14.20;;
5785;SDS011;2919;48.630;9.000;2024-03-07T13:26:25;34.03;;;15.63;;
5785;SDS011;2919;48.630;9.000;2024-03-07T13:28:55;35.77;;;15.33;;
5785;SDS011;2919;48.630;9.000;2024-03-07T13:31:21;30.73;;;15.73;;
5785;SDS011;2919;48.630;9.000;2024-03-07T13:33:47;29.80;;;14.73;;
5785;SDS011;2919;48.630;9.000;2024-03-07T13:36:16;34.90;;;15.83;;
5785;SDS011;2919;48.630;9.000;2024-03-07T13:38:48;32.80;;;17.17;;
5785;SDS011;2919;48.630;9.000;2024-03-07T13:41:16;41.20;;;17.20;;
5785;SDS011;2919;48.630;9.000;2024-03-07T13:43:41;41.40;;;15.90;;
5785;SDS011;2919;48.630;9.000;2024-03-07T13:46:07;35.50;;;15.63;;
5785;SDS011;2919;48.630;9.000;2024-03-07T13:48:32;37.03;;;17.60;;
5785;SDS011;2919;48.630;9.000;2024-03-07T13:51:01;36.00;;;15.20;;
5785;SDS011;2919;48.630;9.000;2024-03-07T13:53:32;42.03;;;18.17;;
5785;SDS011;2919;48.630;9.000;2024-03-07T13:56:12;39.87;;;15.40;;
5785;SDS011;2919;48.630;9.000;2024-03-07T14:01:52;42.27;;;17.70;;
5785;SDS011;2919;48.630;9.000;2024-03-07T14:04:44;37.27;;;17.60;;
5785;SDS011;2919;48.630;9.000;2024-03-07T14:07:44;37.73;;;15.90;;
5785;SDS011;2919;48.630;9.000;2024-03-07T14:19:54;35.30;;;16.17;;
5785;SDS011;2919;48.630;9.000;2024-03-07T14:23:00;38.83;;;15.87;;
5785;SDS011;2919;48.630;9.000;2024-03-07T14:30:53;40.03;;;16.10;;
5785;SDS011;2919;48.630;9.000;2024-03-07T14:33:26;35.70;;;17.33;;
5785;SDS011;2919;48.630;9.000;2024-03-07T14:36:00;34.13;;;15.90;;
5785;SDS011;2919;48.630;9.000;2024-03-07T14:38:37;40.90;;;18.97;;
5785;SDS011;2919;48.630;9.000;2024-03-07T14:41:14;42.07;;;18.00;;
5785;SDS011;2919;48.630;9.000;2024-03-07T14:43:41;40.17;;;19.33;;
5785;SDS011;2919;48.630;9.000;2024-03-07T14:46:09;35.20;;;17.33;;
5785;SDS011;2919;48.630;9.000;2024-03-07T14:48:37;32.77;;;15.80;;
5785;SDS011;2919;48.630;9.000;2024-03-07T14:51:04;40.93;;;18.10;;
5785;SDS011;2919;48.630;9.000;2024-03-07T14:53:32;42.90;;;16.73;;
5785;SDS011;2919;48.630;9.000;2024-03-07T14:55:57;35.73;;;17.73;;
5785;SDS011;2919;48.630;9.000;2024-03-07T14:58:24;33.30;;;15.20;;
5785;SDS011;2919;48.630;9.000;2024-03-07T15:00:50;33.93;;;15.90;;
5785;SDS011;2919;48.630;9.000;2024-03-07T15:03:18;36.37;;;16.40;;
5785;SDS011;2919;48.630;9.000;2024-03-07T15:05:44;33.20;;;16.90;;
5785;SDS011;2919;48.630;9.000;2024-03-07T15:08:10;34.67;;;16.47;;
5785;SDS011;2919;48.630;9.000;2024-03-07T15:10:36;33.47;;;14.90;;